Decoded Metar for UWLW (ULYANOVSK in RUSSIA) (IATA:N/A) | Meteo·Mobile Aviation Weather
aviador You're here:

UWLW Decoded Metar

ULYANOVSK in RUSSIA
Report Time2019-10-22 14:00:00
UTC Time2019-10-22 14:27:13
Flight Rules vfr VFR
Wind290° at 6 kt
W.Decomp.*RWY 20: 1.1 kt HW 5.9 kt RCW
Visibility8000 m
Phenomena:N/A
Clouds:Overcast 035 Hf
Expected CloudBase > 1,600 ft AGL from Temp-Dew spread
Ceiling3,500 ft
Temp10°C (ISA -5)
Dew Point06°C (76% RH)
AAT6.9°C
QNH1020 hPa
Density Alt-440 ft
Elevation217 ft
Report Wrong Elevation
Raw Report
UWLW 221400Z 29003MPS 8000 OVC035 10/06 Q1020 R02/CLRD60 NOSIG RMK
QFE758=

Extra information for UWLW:More info

Metar Taf Metar & Taf Last 4 Metars F.Rules Stats Wind Profile Meteogram Temp Stats Airport Information Weather charts Add Link Nearby VenuesMetar ALERT Operation Metar Decoded Social comments